sensor_id;sensor_type;location;lat;lon;timestamp;P1;durP1;ratioP1;P2;durP2;ratioP2
78443;SDS011;67739;52.986;8.894;2023-03-31T00:01:36;7.45;;;2.20;;
78443;SDS011;67739;52.986;8.894;2023-03-31T00:04:06;12.90;;;3.00;;
78443;SDS011;67739;52.986;8.894;2023-03-31T00:06:36;11.07;;;2.97;;
78443;SDS011;67739;52.986;8.894;2023-03-31T00:09:05;10.63;;;2.85;;
78443;SDS011;67739;52.986;8.894;2023-03-31T00:11:32;12.55;;;2.67;;
78443;SDS011;67739;52.986;8.894;2023-03-31T00:13:57;12.82;;;3.75;;
78443;SDS011;67739;52.986;8.894;2023-03-31T00:16:23;11.05;;;2.67;;
78443;SDS011;67739;52.986;8.894;2023-03-31T00:18:49;10.13;;;2.92;;
78443;SDS011;67739;52.986;8.894;2023-03-31T00:21:17;12.70;;;2.70;;
78443;SDS011;67739;52.986;8.894;2023-03-31T00:23:54;13.13;;;2.65;;
78443;SDS011;67739;52.986;8.894;2023-03-31T00:26:20;6.72;;;2.00;;
78443;SDS011;67739;52.986;8.894;2023-03-31T00:28:47;10.82;;;2.70;;
78443;SDS011;67739;52.986;8.894;2023-03-31T00:31:13;9.88;;;2.17;;
78443;SDS011;67739;52.986;8.894;2023-03-31T00:33:39;11.05;;;2.63;;
78443;SDS011;67739;52.986;8.894;2023-03-31T00:36:05;7.97;;;1.55;;
78443;SDS011;67739;52.986;8.894;2023-03-31T00:38:30;9.75;;;3.03;;
78443;SDS011;67739;52.986;8.894;2023-03-31T00:40:57;8.52;;;2.55;;
78443;SDS011;67739;52.986;8.894;2023-03-31T00:43:31;8.90;;;2.35;;
78443;SDS011;67739;52.986;8.894;2023-03-31T00:46:03;7.95;;;1.90;;
78443;SDS011;67739;52.986;8.894;2023-03-31T00:48:51;7.88;;;2.63;;
78443;SDS011;67739;52.986;8.894;2023-03-31T00:51:21;9.20;;;1.65;;
78443;SDS011;67739;52.986;8.894;2023-03-31T00:53:55;10.27;;;2.10;;
78443;SDS011;67739;52.986;8.894;2023-03-31T00:56:27;6.82;;;1.90;;
78443;SDS011;67739;52.986;8.894;2023-03-31T00:59:00;8.15;;;2.38;;
78443;SDS011;67739;52.986;8.894;2023-03-31T01:01:27;10.95;;;2.42;;
78443;SDS011;67739;52.986;8.894;2023-03-31T01:03:54;7.43;;;1.45;;
78443;SDS011;67739;52.986;8.894;2023-03-31T01:06:21;15.57;;;3.95;;
78443;SDS011;67739;52.986;8.894;2023-03-31T01:08:49;7.20;;;1.63;;
78443;SDS011;67739;52.986;8.894;2023-03-31T01:11:17;10.80;;;1.70;;
78443;SDS011;67739;52.986;8.894;2023-03-31T01:13:45;10.25;;;1.90;;
78443;SDS011;67739;52.986;8.894;2023-03-31T01:16:15;8.82;;;2.47;;
78443;SDS011;67739;52.986;8.894;2023-03-31T01:18:41;7.10;;;2.28;;
78443;SDS011;67739;52.986;8.894;2023-03-31T01:55:21;10.18;;;2.03;;
78443;SDS011;67739;52.986;8.894;2023-03-31T01:58:34;12.13;;;2.20;;
78443;SDS011;67739;52.986;8.894;2023-03-31T02:00:54;9.10;;;2.03;;
78443;SDS011;67739;52.986;8.894;2023-03-31T02:03:34;12.82;;;2.75;;
78443;SDS011;67739;52.986;8.894;2023-03-31T02:06:05;8.13;;;1.85;;
78443;SDS011;67739;52.986;8.894;2023-03-31T02:08:39;11.90;;;2.35;;
78443;SDS011;67739;52.986;8.894;2023-03-31T02:11:10;6.47;;;1.48;;
78443;SDS011;67739;52.986;8.894;2023-03-31T02:13:36;7.13;;;1.95;;
78443;SDS011;67739;52.986;8.894;2023-03-31T02:16:05;8.70;;;1.60;;
78443;SDS011;67739;52.986;8.894;2023-03-31T02:18:35;7.72;;;1.98;;
78443;SDS011;67739;52.986;8.894;2023-03-31T02:21:02;10.13;;;2.08;;
78443;SDS011;67739;52.986;8.894;2023-03-31T02:23:31;8.68;;;1.52;;
78443;SDS011;67739;52.986;8.894;2023-03-31T02:28:31;10.05;;;2.35;;
78443;SDS011;67739;52.986;8.894;2023-03-31T02:33:37;11.85;;;3.50;;
78443;SDS011;67739;52.986;8.894;2023-03-31T02:36:03;7.72;;;2.53;;
78443;SDS011;67739;52.986;8.894;2023-03-31T02:38:31;12.25;;;2.28;;
78443;SDS011;67739;52.986;8.894;2023-03-31T02:41:01;10.32;;;2.47;;
78443;SDS011;67739;52.986;8.894;2023-03-31T02:43:27;8.27;;;2.03;;
78443;SDS011;67739;52.986;8.894;2023-03-31T02:45:52;9.60;;;2.30;;
78443;SDS011;67739;52.986;8.894;2023-03-31T02:48:19;14.93;;;2.25;;
78443;SDS011;67739;52.986;8.894;2023-03-31T02:51:08;9.65;;;2.90;;
78443;SDS011;67739;52.986;8.894;2023-03-31T02:53:41;6.70;;;2.28;;
78443;SDS011;67739;52.986;8.894;2023-03-31T03:02:07;9.63;;;1.77;;
78443;SDS011;67739;52.986;8.894;2023-03-31T03:05:15;8.60;;;1.70;;
78443;SDS011;67739;52.986;8.894;2023-03-31T03:07:58;11.27;;;1.95;;
78443;SDS011;67739;52.986;8.894;2023-03-31T03:13:44;11.13;;;2.67;;
78443;SDS011;67739;52.986;8.894;2023-03-31T03:16:22;13.15;;;2.55;;
78443;SDS011;67739;52.986;8.894;2023-03-31T03:18:53;8.35;;;2.38;;
78443;SDS011;67739;52.986;8.894;2023-03-31T03:21:23;10.10;;;1.80;;
78443;SDS011;67739;52.986;8.894;2023-03-31T03:23:49;12.73;;;3.42;;
78443;SDS011;67739;52.986;8.894;2023-03-31T03:26:15;11.25;;;2.78;;
78443;SDS011;67739;52.986;8.894;2023-03-31T03:28:45;7.90;;;2.50;;
78443;SDS011;67739;52.986;8.894;2023-03-31T03:31:11;8.25;;;2.58;;
78443;SDS011;67739;52.986;8.894;2023-03-31T03:33:37;11.15;;;1.90;;
78443;SDS011;67739;52.986;8.894;2023-03-31T03:36:03;10.57;;;2.55;;
78443;SDS011;67739;52.986;8.894;2023-03-31T03:38:28;10.82;;;2.72;;
78443;SDS011;67739;52.986;8.894;2023-03-31T03:40:54;10.18;;;2.30;;
78443;SDS011;67739;52.986;8.894;2023-03-31T03:43:19;5.32;;;1.60;;
78443;SDS011;67739;52.986;8.894;2023-03-31T03:45:48;9.48;;;2.33;;
78443;SDS011;67739;52.986;8.894;2023-03-31T03:48:14;9.75;;;2.40;;
78443;SDS011;67739;52.986;8.894;2023-03-31T03:50:39;8.07;;;2.05;;
78443;SDS011;67739;52.986;8.894;2023-03-31T03:53:05;10.35;;;1.52;;
78443;SDS011;67739;52.986;8.894;2023-03-31T03:55:31;9.48;;;2.28;;
78443;SDS011;67739;52.986;8.894;2023-03-31T03:57:56;11.95;;;2.08;;
78443;SDS011;67739;52.986;8.894;2023-03-31T04:00:22;10.90;;;2.58;;
78443;SDS011;67739;52.986;8.894;2023-03-31T04:02:47;11.90;;;3.08;;
78443;SDS011;67739;52.986;8.894;2023-03-31T04:05:12;7.15;;;2.85;;
78443;SDS011;67739;52.986;8.894;2023-03-31T04:07:38;13.18;;;3.35;;
78443;SDS011;67739;52.986;8.894;2023-03-31T04:10:03;9.85;;;3.58;;
78443;SDS011;67739;52.986;8.894;2023-03-31T04:12:29;12.00;;;2.95;;
78443;SDS011;67739;52.986;8.894;2023-03-31T04:14:54;11.05;;;2.83;;
78443;SDS011;67739;52.986;8.894;2023-03-31T04:17:20;13.13;;;4.05;;
78443;SDS011;67739;52.986;8.894;2023-03-31T04:19:57;11.82;;;3.72;;
78443;SDS011;67739;52.986;8.894;2023-03-31T04:22:25;10.70;;;3.25;;
78443;SDS011;67739;52.986;8.894;2023-03-31T04:24:59;11.10;;;3.67;;
78443;SDS011;67739;52.986;8.894;2023-03-31T04:27:25;10.48;;;3.15;;
78443;SDS011;67739;52.986;8.894;2023-03-31T04:29:51;15.82;;;5.18;;
78443;SDS011;67739;52.986;8.894;2023-03-31T04:32:20;8.65;;;3.33;;
78443;SDS011;67739;52.986;8.894;2023-03-31T04:34:48;9.35;;;3.17;;
78443;SDS011;67739;52.986;8.894;2023-03-31T04:37:26;16.73;;;4.57;;
78443;SDS011;67739;52.986;8.894;2023-03-31T04:39:52;10.90;;;3.92;;
78443;SDS011;67739;52.986;8.894;2023-03-31T04:42:18;13.23;;;3.85;;
78443;SDS011;67739;52.986;8.894;2023-03-31T04:44:43;13.15;;;3.90;;
78443;SDS011;67739;52.986;8.894;2023-03-31T04:47:09;12.43;;;4.22;;
78443;SDS011;67739;52.986;8.894;2023-03-31T04:49:34;10.75;;;3.45;;
78443;SDS011;67739;52.986;8.894;2023-03-31T04:52:00;12.95;;;4.20;;
78443;SDS011;67739;52.986;8.894;2023-03-31T04:54:26;9.18;;;3.65;;
78443;SDS011;67739;52.986;8.894;2023-03-31T04:56:51;9.75;;;3.40;;
78443;SDS011;67739;52.986;8.894;2023-03-31T04:59:16;8.15;;;3.60;;
78443;SDS011;67739;52.986;8.894;2023-03-31T05:01:42;9.07;;;4.30;;
78443;SDS011;67739;52.986;8.894;2023-03-31T05:04:08;10.50;;;4.05;;
78443;SDS011;67739;52.986;8.894;2023-03-31T05:06:34;11.30;;;4.32;;
78443;SDS011;67739;52.986;8.894;2023-03-31T05:08:59;9.73;;;4.38;;
78443;SDS011;67739;52.986;8.894;2023-03-31T05:11:25;14.25;;;4.32;;
78443;SDS011;67739;52.986;8.894;2023-03-31T05:13:51;10.00;;;4.18;;
78443;SDS011;67739;52.986;8.894;2023-03-31T05:16:16;11.30;;;4.03;;
78443;SDS011;67739;52.986;8.894;2023-03-31T05:18:42;12.68;;;4.43;;
78443;SDS011;67739;52.986;8.894;2023-03-31T05:21:11;11.70;;;4.18;;
78443;SDS011;67739;52.986;8.894;2023-03-31T05:23:38;12.75;;;4.22;;
78443;SDS011;67739;52.986;8.894;2023-03-31T05:26:04;10.52;;;3.97;;
78443;SDS011;67739;52.986;8.894;2023-03-31T05:28:30;11.05;;;4.32;;
78443;SDS011;67739;52.986;8.894;2023-03-31T05:30:57;11.88;;;4.85;;
78443;SDS011;67739;52.986;8.894;2023-03-31T05:33:24;9.32;;;3.28;;
78443;SDS011;67739;52.986;8.894;2023-03-31T05:35:49;13.40;;;4.50;;
78443;SDS011;67739;52.986;8.894;2023-03-31T05:38:14;9.57;;;3.33;;
78443;SDS011;67739;52.986;8.894;2023-03-31T05:40:40;9.40;;;3.67;;
78443;SDS011;67739;52.986;8.894;2023-03-31T05:43:05;13.20;;;5.03;;
78443;SDS011;67739;52.986;8.894;2023-03-31T05:45:30;8.70;;;3.42;;
78443;SDS011;67739;52.986;8.894;2023-03-31T05:47:56;13.82;;;4.45;;
78443;SDS011;67739;52.986;8.894;2023-03-31T05:50:21;10.30;;;3.08;;
78443;SDS011;67739;52.986;8.894;2023-03-31T05:52:46;12.85;;;3.58;;
78443;SDS011;67739;52.986;8.894;2023-03-31T05:55:12;8.70;;;3.65;;
78443;SDS011;67739;52.986;8.894;2023-03-31T05:57:37;8.95;;;3.40;;
78443;SDS011;67739;52.986;8.894;2023-03-31T06:00:03;12.55;;;4.63;;
78443;SDS011;67739;52.986;8.894;2023-03-31T06:02:31;11.98;;;3.95;;
78443;SDS011;67739;52.986;8.894;2023-03-31T06:04:57;14.38;;;4.53;;
78443;SDS011;67739;52.986;8.894;2023-03-31T06:07:23;8.02;;;3.47;;
78443;SDS011;67739;52.986;8.894;2023-03-31T06:09:49;9.95;;;3.75;;
78443;SDS011;67739;52.986;8.894;2023-03-31T06:12:14;11.98;;;3.35;;
78443;SDS011;67739;52.986;8.894;2023-03-31T06:14:40;13.15;;;3.42;;
78443;SDS011;67739;52.986;8.894;2023-03-31T06:17:06;9.73;;;2.92;;
78443;SDS011;67739;52.986;8.894;2023-03-31T06:19:31;11.77;;;3.85;;
78443;SDS011;67739;52.986;8.894;2023-03-31T06:21:57;9.23;;;3.60;;
78443;SDS011;67739;52.986;8.894;2023-03-31T06:24:22;10.52;;;3.22;;
78443;SDS011;67739;52.986;8.894;2023-03-31T06:26:48;9.32;;;3.03;;
78443;SDS011;67739;52.986;8.894;2023-03-31T06:29:13;9.48;;;3.05;;
78443;SDS011;67739;52.986;8.894;2023-03-31T06:31:38;7.57;;;2.47;;
78443;SDS011;67739;52.986;8.894;2023-03-31T06:34:04;7.18;;;2.35;;
78443;SDS011;67739;52.986;8.894;2023-03-31T06:36:30;9.60;;;2.95;;
78443;SDS011;67739;52.986;8.894;2023-03-31T06:38:56;8.77;;;2.58;;
78443;SDS011;67739;52.986;8.894;2023-03-31T06:41:21;10.60;;;2.85;;
78443;SDS011;67739;52.986;8.894;2023-03-31T06:43:47;9.45;;;2.90;;
78443;SDS011;67739;52.986;8.894;2023-03-31T06:46:12;7.72;;;2.45;;
78443;SDS011;67739;52.986;8.894;2023-03-31T06:48:37;10.82;;;3.05;;
78443;SDS011;67739;52.986;8.894;2023-03-31T06:51:04;8.02;;;2.13;;
78443;SDS011;67739;52.986;8.894;2023-03-31T06:53:31;9.55;;;2.90;;
78443;SDS011;67739;52.986;8.894;2023-03-31T06:55:56;8.18;;;2.40;;
78443;SDS011;67739;52.986;8.894;2023-03-31T06:58:22;10.63;;;2.72;;
78443;SDS011;67739;52.986;8.894;2023-03-31T07:00:47;8.18;;;2.33;;
78443;SDS011;67739;52.986;8.894;2023-03-31T07:03:13;8.52;;;2.45;;
78443;SDS011;67739;52.986;8.894;2023-03-31T07:05:42;8.98;;;2.70;;
78443;SDS011;67739;52.986;8.894;2023-03-31T07:08:12;10.85;;;2.55;;
78443;SDS011;67739;52.986;8.894;2023-03-31T07:10:38;8.60;;;3.10;;
78443;SDS011;67739;52.986;8.894;2023-03-31T07:13:03;9.00;;;3.30;;
78443;SDS011;67739;52.986;8.894;2023-03-31T07:15:28;11.32;;;3.40;;
78443;SDS011;67739;52.986;8.894;2023-03-31T07:17:57;9.90;;;2.92;;
78443;SDS011;67739;52.986;8.894;2023-03-31T07:20:26;12.15;;;2.90;;
78443;SDS011;67739;52.986;8.894;2023-03-31T07:22:52;9.52;;;3.30;;
78443;SDS011;67739;52.986;8.894;2023-03-31T07:25:18;12.50;;;3.40;;
78443;SDS011;67739;52.986;8.894;2023-03-31T07:27:43;10.10;;;3.60;;
78443;SDS011;67739;52.986;8.894;2023-03-31T07:30:10;8.35;;;2.63;;
78443;SDS011;67739;52.986;8.894;2023-03-31T07:32:38;9.52;;;3.28;;
78443;SDS011;67739;52.986;8.894;2023-03-31T07:35:08;12.27;;;3.30;;
78443;SDS011;67739;52.986;8.894;2023-03-31T07:37:39;11.10;;;2.63;;
78443;SDS011;67739;52.986;8.894;2023-03-31T07:42:34;9.27;;;2.75;;
78443;SDS011;67739;52.986;8.894;2023-03-31T07:45:00;9.18;;;3.78;;
78443;SDS011;67739;52.986;8.894;2023-03-31T07:47:26;10.43;;;3.15;;
78443;SDS011;67739;52.986;8.894;2023-03-31T07:49:52;9.75;;;2.80;;
78443;SDS011;67739;52.986;8.894;2023-03-31T07:52:18;8.65;;;3.05;;
78443;SDS011;67739;52.986;8.894;2023-03-31T07:54:44;8.63;;;2.80;;
78443;SDS011;67739;52.986;8.894;2023-03-31T07:57:10;10.20;;;3.13;;
78443;SDS011;67739;52.986;8.894;2023-03-31T07:59:36;8.38;;;3.47;;
78443;SDS011;67739;52.986;8.894;2023-03-31T08:02:01;11.32;;;3.50;;
78443;SDS011;67739;52.986;8.894;2023-03-31T08:04:27;10.13;;;2.83;;
78443;SDS011;67739;52.986;8.894;2023-03-31T08:06:52;8.18;;;2.75;;
78443;SDS011;67739;52.986;8.894;2023-03-31T08:09:18;11.10;;;4.18;;
78443;SDS011;67739;52.986;8.894;2023-03-31T08:11:44;7.32;;;3.13;;
78443;SDS011;67739;52.986;8.894;2023-03-31T08:14:09;9.55;;;3.38;;
78443;SDS011;67739;52.986;8.894;2023-03-31T08:16:35;9.80;;;3.00;;
78443;SDS011;67739;52.986;8.894;2023-03-31T08:19:00;10.55;;;2.92;;
78443;SDS011;67739;52.986;8.894;2023-03-31T08:21:27;12.50;;;3.13;;
78443;SDS011;67739;52.986;8.894;2023-03-31T08:23:54;8.45;;;3.20;;
78443;SDS011;67739;52.986;8.894;2023-03-31T08:26:19;11.93;;;3.58;;
78443;SDS011;67739;52.986;8.894;2023-03-31T08:28:48;7.97;;;2.40;;
78443;SDS011;67739;52.986;8.894;2023-03-31T08:31:14;6.88;;;2.00;;
78443;SDS011;67739;52.986;8.894;2023-03-31T08:33:41;8.20;;;3.15;;
78443;SDS011;67739;52.986;8.894;2023-03-31T08:36:07;6.10;;;3.05;;
78443;SDS011;67739;52.986;8.894;2023-03-31T08:38:37;8.00;;;2.03;;
78443;SDS011;67739;52.986;8.894;2023-03-31T08:44:01;9.02;;;2.33;;
78443;SDS011;67739;52.986;8.894;2023-03-31T08:46:31;6.40;;;1.92;;
78443;SDS011;67739;52.986;8.894;2023-03-31T08:48:59;8.07;;;2.15;;
78443;SDS011;67739;52.986;8.894;2023-03-31T08:51:27;7.57;;;3.10;;
78443;SDS011;67739;52.986;8.894;2023-03-31T08:53:57;8.63;;;2.70;;
78443;SDS011;67739;52.986;8.894;2023-03-31T08:56:28;8.07;;;2.88;;
78443;SDS011;67739;52.986;8.894;2023-03-31T08:58:58;8.68;;;2.78;;
78443;SDS011;67739;52.986;8.894;2023-03-31T09:01:48;12.23;;;3.08;;
78443;SDS011;67739;52.986;8.894;2023-03-31T09:09:40;10.82;;;2.45;;
78443;SDS011;67739;52.986;8.894;2023-03-31T09:17:30;8.85;;;2.67;;
78443;SDS011;67739;52.986;8.894;2023-03-31T09:20:06;5.68;;;1.95;;
78443;SDS011;67739;52.986;8.894;2023-03-31T09:22:48;6.00;;;1.77;;
78443;SDS011;67739;52.986;8.894;2023-03-31T09:27:56;8.57;;;1.52;;
78443;SDS011;67739;52.986;8.894;2023-03-31T09:30:25;5.85;;;1.63;;
78443;SDS011;67739;52.986;8.894;2023-03-31T09:32:54;7.28;;;1.40;;
78443;SDS011;67739;52.986;8.894;2023-03-31T09:35:33;6.40;;;1.45;;
78443;SDS011;67739;52.986;8.894;2023-03-31T09:37:59;8.80;;;1.42;;
78443;SDS011;67739;52.986;8.894;2023-03-31T09:40:25;7.05;;;1.63;;
78443;SDS011;67739;52.986;8.894;2023-03-31T09:43:03;8.27;;;1.52;;
78443;SDS011;67739;52.986;8.894;2023-03-31T09:45:31;7.35;;;1.67;;
78443;SDS011;67739;52.986;8.894;2023-03-31T09:47:58;5.53;;;1.05;;
78443;SDS011;67739;52.986;8.894;2023-03-31T09:50:27;7.55;;;1.58;;
78443;SDS011;67739;52.986;8.894;2023-03-31T09:52:55;6.93;;;1.30;;
78443;SDS011;67739;52.986;8.894;2023-03-31T09:55:24;4.70;;;1.00;;
78443;SDS011;67739;52.986;8.894;2023-03-31T09:57:53;7.57;;;1.50;;
78443;SDS011;67739;52.986;8.894;2023-03-31T10:00:19;8.65;;;1.67;;
78443;SDS011;67739;52.986;8.894;2023-03-31T10:02:48;8.60;;;1.50;;
78443;SDS011;67739;52.986;8.894;2023-03-31T10:05:18;5.57;;;1.40;;
78443;SDS011;67739;52.986;8.894;2023-03-31T10:07:48;7.05;;;1.23;;
78443;SDS011;67739;52.986;8.894;2023-03-31T10:10:25;7.88;;;1.42;;
78443;SDS011;67739;52.986;8.894;2023-03-31T10:12:54;7.75;;;1.30;;
78443;SDS011;67739;52.986;8.894;2023-03-31T10:15:20;6.80;;;1.27;;
78443;SDS011;67739;52.986;8.894;2023-03-31T10:17:51;7.35;;;1.60;;
78443;SDS011;67739;52.986;8.894;2023-03-31T10:20:36;5.93;;;1.23;;
78443;SDS011;67739;52.986;8.894;2023-03-31T10:23:04;9.13;;;1.55;;
78443;SDS011;67739;52.986;8.894;2023-03-31T10:25:39;6.68;;;1.67;;
78443;SDS011;67739;52.986;8.894;2023-03-31T10:28:05;5.88;;;1.30;;
78443;SDS011;67739;52.986;8.894;2023-03-31T10:30:34;7.45;;;1.33;;
78443;SDS011;67739;52.986;8.894;2023-03-31T10:33:12;7.50;;;1.38;;
78443;SDS011;67739;52.986;8.894;2023-03-31T10:35:40;5.53;;;1.40;;
78443;SDS011;67739;52.986;8.894;2023-03-31T10:38:06;7.32;;;1.38;;
78443;SDS011;67739;52.986;8.894;2023-03-31T10:40:38;4.50;;;1.30;;
78443;SDS011;67739;52.986;8.894;2023-03-31T10:43:14;6.03;;;1.70;;
78443;SDS011;67739;52.986;8.894;2023-03-31T10:45:43;6.30;;;2.05;;
78443;SDS011;67739;52.986;8.894;2023-03-31T10:48:18;4.85;;;1.27;;
78443;SDS011;67739;52.986;8.894;2023-03-31T10:50:51;6.05;;;1.77;;
78443;SDS011;67739;52.986;8.894;2023-03-31T10:53:17;5.13;;;1.15;;
78443;SDS011;67739;52.986;8.894;2023-03-31T10:58:38;7.32;;;1.48;;
78443;SDS011;67739;52.986;8.894;2023-03-31T11:06:38;5.43;;;1.13;;
78443;SDS011;67739;52.986;8.894;2023-03-31T11:09:12;6.88;;;1.30;;
78443;SDS011;67739;52.986;8.894;2023-03-31T11:17:30;7.55;;;1.92;;
78443;SDS011;67739;52.986;8.894;2023-03-31T11:20:24;5.50;;;1.67;;
78443;SDS011;67739;52.986;8.894;2023-03-31T11:30:37;5.07;;;1.77;;
78443;SDS011;67739;52.986;8.894;2023-03-31T11:41:34;4.90;;;1.73;;
78443;SDS011;67739;52.986;8.894;2023-03-31T11:44:04;3.85;;;1.30;;
78443;SDS011;67739;52.986;8.894;2023-03-31T11:54:23;1.27;;;0.35;;
78443;SDS011;67739;52.986;8.894;2023-03-31T11:56:52;2.15;;;0.30;;
78443;SDS011;67739;52.986;8.894;2023-03-31T11:59:20;1.13;;;0.30;;
78443;SDS011;67739;52.986;8.894;2023-03-31T12:01:50;0.80;;;0.20;;
78443;SDS011;67739;52.986;8.894;2023-03-31T12:04:38;1.20;;;0.30;;
78443;SDS011;67739;52.986;8.894;2023-03-31T12:07:20;1.90;;;0.85;;
78443;SDS011;67739;52.986;8.894;2023-03-31T12:09:57;4.70;;;0.35;;
78443;SDS011;67739;52.986;8.894;2023-03-31T12:12:36;3.67;;;0.65;;
78443;SDS011;67739;52.986;8.894;2023-03-31T12:17:48;0.95;;;0.20;;
78443;SDS011;67739;52.986;8.894;2023-03-31T12:22:55;2.15;;;0.30;;
78443;SDS011;67739;52.986;8.894;2023-03-31T12:25:23;1.90;;;0.22;;
78443;SDS011;67739;52.986;8.894;2023-03-31T12:27:50;1.80;;;0.20;;
78443;SDS011;67739;52.986;8.894;2023-03-31T12:32:48;2.30;;;0.38;;
78443;SDS011;67739;52.986;8.894;2023-03-31T12:38:04;1.48;;;0.30;;
78443;SDS011;67739;52.986;8.894;2023-03-31T12:43:25;3.60;;;0.40;;
78443;SDS011;67739;52.986;8.894;2023-03-31T12:54:16;2.13;;;0.50;;
78443;SDS011;67739;52.986;8.894;2023-03-31T12:59:32;4.60;;;0.70;;
78443;SDS011;67739;52.986;8.894;2023-03-31T13:04:33;2.35;;;0.50;;
78443;SDS011;67739;52.986;8.894;2023-03-31T13:07:01;2.58;;;0.50;;
78443;SDS011;67739;52.986;8.894;2023-03-31T13:09:41;2.30;;;0.50;;
78443;SDS011;67739;52.986;8.894;2023-03-31T13:12:10;3.05;;;0.50;;
78443;SDS011;67739;52.986;8.894;2023-03-31T13:14:39;4.22;;;0.77;;
78443;SDS011;67739;52.986;8.894;2023-03-31T13:19:50;1.58;;;0.63;;
78443;SDS011;67739;52.986;8.894;2023-03-31T13:22:29;1.80;;;0.40;;
78443;SDS011;67739;52.986;8.894;2023-03-31T13:36:07;2.03;;;0.40;;
78443;SDS011;67739;52.986;8.894;2023-03-31T13:47:16;3.17;;;0.40;;
78443;SDS011;67739;52.986;8.894;2023-03-31T13:50:31;4.00;;;0.80;;
78443;SDS011;67739;52.986;8.894;2023-03-31T13:58:26;1.92;;;0.25;;
78443;SDS011;67739;52.986;8.894;2023-03-31T14:03:50;2.75;;;0.40;;
78443;SDS011;67739;52.986;8.894;2023-03-31T14:09:30;2.25;;;0.45;;
78443;SDS011;67739;52.986;8.894;2023-03-31T14:11:58;3.38;;;0.57;;
78443;SDS011;67739;52.986;8.894;2023-03-31T14:14:24;1.60;;;0.32;;
78443;SDS011;67739;52.986;8.894;2023-03-31T14:16:51;1.08;;;0.30;;
78443;SDS011;67739;52.986;8.894;2023-03-31T14:27:48;3.65;;;0.55;;
78443;SDS011;67739;52.986;8.894;2023-03-31T14:38:37;2.58;;;0.30;;
78443;SDS011;67739;52.986;8.894;2023-03-31T14:41:02;2.10;;;0.40;;
78443;SDS011;67739;52.986;8.894;2023-03-31T14:43:29;2.13;;;0.45;;
78443;SDS011;67739;52.986;8.894;2023-03-31T14:46:02;4.90;;;0.90;;
78443;SDS011;67739;52.986;8.894;2023-03-31T14:48:29;6.53;;;0.82;;
78443;SDS011;67739;52.986;8.894;2023-03-31T14:50:57;4.90;;;0.80;;
78443;SDS011;67739;52.986;8.894;2023-03-31T14:53:25;4.30;;;0.60;;
78443;SDS011;67739;52.986;8.894;2023-03-31T14:55:54;4.10;;;0.52;;
78443;SDS011;67739;52.986;8.894;2023-03-31T14:58:32;4.70;;;0.70;;
78443;SDS011;67739;52.986;8.894;2023-03-31T15:01:01;2.33;;;0.73;;
78443;SDS011;67739;52.986;8.894;2023-03-31T15:03:28;4.68;;;0.45;;
78443;SDS011;67739;52.986;8.894;2023-03-31T15:05:58;3.78;;;0.30;;
78443;SDS011;67739;52.986;8.894;2023-03-31T15:08:26;2.25;;;0.40;;
78443;SDS011;67739;52.986;8.894;2023-03-31T15:10:54;5.72;;;0.68;;
78443;SDS011;67739;52.986;8.894;2023-03-31T15:18:46;3.78;;;0.40;;
78443;SDS011;67739;52.986;8.894;2023-03-31T15:21:21;3.42;;;0.30;;
78443;SDS011;67739;52.986;8.894;2023-03-31T15:23:54;2.50;;;0.30;;
78443;SDS011;67739;52.986;8.894;2023-03-31T15:26:20;3.25;;;0.57;;
78443;SDS011;67739;52.986;8.894;2023-03-31T15:28:53;2.85;;;0.35;;
78443;SDS011;67739;52.986;8.894;2023-03-31T15:31:22;4.20;;;0.30;;
78443;SDS011;67739;52.986;8.894;2023-03-31T15:33:50;4.53;;;0.60;;
78443;SDS011;67739;52.986;8.894;2023-03-31T15:36:16;4.47;;;0.50;;
78443;SDS011;67739;52.986;8.894;2023-03-31T15:38:45;5.15;;;0.75;;
78443;SDS011;67739;52.986;8.894;2023-03-31T15:41:16;4.53;;;0.70;;
78443;SDS011;67739;52.986;8.894;2023-03-31T15:46:15;5.00;;;1.08;;
78443;SDS011;67739;52.986;8.894;2023-03-31T15:48:50;6.53;;;1.10;;
78443;SDS011;67739;52.986;8.894;2023-03-31T15:51:24;4.80;;;1.02;;
78443;SDS011;67739;52.986;8.894;2023-03-31T15:53:54;4.28;;;1.08;;
78443;SDS011;67739;52.986;8.894;2023-03-31T15:56:24;6.55;;;1.10;;
78443;SDS011;67739;52.986;8.894;2023-03-31T15:58:55;6.18;;;0.70;;
78443;SDS011;67739;52.986;8.894;2023-03-31T16:01:32;3.90;;;0.80;;
78443;SDS011;67739;52.986;8.894;2023-03-31T16:04:05;6.38;;;0.95;;
78443;SDS011;67739;52.986;8.894;2023-03-31T16:06:34;4.15;;;0.70;;
78443;SDS011;67739;52.986;8.894;2023-03-31T16:09:07;6.82;;;0.93;;
78443;SDS011;67739;52.986;8.894;2023-03-31T16:11:46;5.30;;;0.68;;
78443;SDS011;67739;52.986;8.894;2023-03-31T16:14:20;3.28;;;0.95;;
78443;SDS011;67739;52.986;8.894;2023-03-31T16:16:54;3.50;;;1.38;;
78443;SDS011;67739;52.986;8.894;2023-03-31T16:19:24;4.60;;;1.25;;
78443;SDS011;67739;52.986;8.894;2023-03-31T16:21:52;5.63;;;1.58;;
78443;SDS011;67739;52.986;8.894;2023-03-31T16:24:27;5.55;;;1.83;;
78443;SDS011;67739;52.986;8.894;2023-03-31T16:27:02;6.53;;;2.08;;
78443;SDS011;67739;52.986;8.894;2023-03-31T16:29:31;6.03;;;1.90;;
78443;SDS011;67739;52.986;8.894;2023-03-31T16:32:17;7.00;;;2.20;;
78443;SDS011;67739;52.986;8.894;2023-03-31T16:34:59;5.97;;;1.92;;
78443;SDS011;67739;52.986;8.894;2023-03-31T16:37:27;5.75;;;2.22;;
78443;SDS011;67739;52.986;8.894;2023-03-31T16:39:53;7.35;;;2.58;;
78443;SDS011;67739;52.986;8.894;2023-03-31T16:42:19;6.10;;;1.92;;
78443;SDS011;67739;52.986;8.894;2023-03-31T16:44:44;10.13;;;2.60;;
78443;SDS011;67739;52.986;8.894;2023-03-31T16:47:11;6.40;;;1.65;;
78443;SDS011;67739;52.986;8.894;2023-03-31T16:49:39;5.50;;;1.90;;
78443;SDS011;67739;52.986;8.894;2023-03-31T16:52:06;4.13;;;1.20;;
78443;SDS011;67739;52.986;8.894;2023-03-31T16:54:33;7.60;;;1.45;;
78443;SDS011;67739;52.986;8.894;2023-03-31T16:56:58;8.98;;;1.85;;
78443;SDS011;67739;52.986;8.894;2023-03-31T16:59:24;7.13;;;2.20;;
78443;SDS011;67739;52.986;8.894;2023-03-31T17:01:49;5.05;;;1.55;;
78443;SDS011;67739;52.986;8.894;2023-03-31T17:04:15;4.97;;;1.48;;
78443;SDS011;67739;52.986;8.894;2023-03-31T17:06:40;4.85;;;1.42;;
78443;SDS011;67739;52.986;8.894;2023-03-31T17:09:06;6.30;;;1.50;;
78443;SDS011;67739;52.986;8.894;2023-03-31T17:11:31;5.05;;;1.45;;
78443;SDS011;67739;52.986;8.894;2023-03-31T17:13:57;4.63;;;1.15;;
78443;SDS011;67739;52.986;8.894;2023-03-31T17:16:24;5.50;;;1.27;;
78443;SDS011;67739;52.986;8.894;2023-03-31T17:18:49;6.18;;;1.30;;
78443;SDS011;67739;52.986;8.894;2023-03-31T17:21:15;4.88;;;1.33;;
78443;SDS011;67739;52.986;8.894;2023-03-31T17:23:44;5.47;;;1.52;;
78443;SDS011;67739;52.986;8.894;2023-03-31T17:26:10;6.47;;;1.38;;
78443;SDS011;67739;52.986;8.894;2023-03-31T17:28:37;5.57;;;1.38;;
78443;SDS011;67739;52.986;8.894;2023-03-31T17:31:16;5.63;;;1.40;;
78443;SDS011;67739;52.986;8.894;2023-03-31T17:33:43;3.35;;;0.73;;
78443;SDS011;67739;52.986;8.894;2023-03-31T17:36:09;5.00;;;1.20;;
78443;SDS011;67739;52.986;8.894;2023-03-31T17:38:35;4.10;;;0.90;;
78443;SDS011;67739;52.986;8.894;2023-03-31T17:41:05;5.38;;;0.95;;
78443;SDS011;67739;52.986;8.894;2023-03-31T17:43:31;5.22;;;0.90;;
78443;SDS011;67739;52.986;8.894;2023-03-31T17:46:00;7.38;;;1.63;;
78443;SDS011;67739;52.986;8.894;2023-03-31T17:48:35;6.20;;;1.30;;
78443;SDS011;67739;52.986;8.894;2023-03-31T17:51:07;4.20;;;0.80;;
78443;SDS011;67739;52.986;8.894;2023-03-31T17:53:34;7.22;;;1.00;;
78443;SDS011;67739;52.986;8.894;2023-03-31T17:56:00;5.60;;;0.95;;
78443;SDS011;67739;52.986;8.894;2023-03-31T17:58:26;3.33;;;1.15;;
78443;SDS011;67739;52.986;8.894;2023-03-31T18:00:52;3.47;;;0.73;;
78443;SDS011;67739;52.986;8.894;2023-03-31T18:03:18;4.15;;;0.90;;
78443;SDS011;67739;52.986;8.894;2023-03-31T18:05:44;4.57;;;0.63;;